Time;durP1;ratioP1;P1;durP2;ratioP2;P2;SDS_P1;SDS_P2;PMS_P1;PMS_P2;Temp;Humidity;BMP_temperature;BMP_pressure;BME280_temperature;BME280_humidity;BME280_pressure;Samples;Min_cycle;Max_cycle;Signal;HPM_P1;HPM_P2
2023/04/28 00:00:46;;;;;;;14.75;6.45;;;11.60;52.70;;;;;;5052716;28;20474;-80
2023/04/28 00:03:12;;;;;;;9.23;4.53;;;11.60;53.20;;;;;;5053859;28;20032;-78
2023/04/28 00:05:38;;;;;;;13.35;5.57;;;11.60;52.90;;;;;;5063430;28;20378;-78
2023/04/28 00:08:04;;;;;;;26.48;11.70;;;11.60;52.80;;;;;;5078180;28;20070;-77
2023/04/28 00:10:31;;;;;;;7.72;4.32;;;11.60;53.00;;;;;;5074779;28;20029;-78
2023/04/28 00:12:57;;;;;;;9.75;3.00;;;11.50;52.40;;;;;;5071906;28;20024;-80
2023/04/28 00:15:23;;;;;;;8.00;2.80;;;11.50;52.70;;;;;;5073344;28;20024;-78
2023/04/28 00:17:49;;;;;;;4.35;2.25;;;11.50;52.80;;;;;;5071855;28;20120;-80
2023/04/28 00:20:15;;;;;;;9.55;4.32;;;11.50;52.40;;;;;;5073094;28;20085;-79
2023/04/28 00:22:41;;;;;;;29.35;12.27;;;11.50;52.90;;;;;;5073169;28;20029;-79
2023/04/28 00:25:07;;;;;;;18.45;6.82;;;11.50;53.20;;;;;;5073058;28;20106;-79
2023/04/28 00:27:34;;;;;;;5.13;2.92;;;11.40;52.80;;;;;;5073351;28;20060;-79
2023/04/28 00:30:00;;;;;;;13.13;5.93;;;11.50;52.60;;;;;;5071900;28;20032;-78
2023/04/28 00:32:26;;;;;;;14.80;6.80;;;11.50;52.70;;;;;;5072604;28;20497;-78
2023/04/28 00:34:52;;;;;;;32.35;12.25;;;11.40;52.70;;;;;;5071492;28;20040;-79
2023/04/28 00:37:18;;;;;;;43.55;18.15;;;11.40;53.00;;;;;;5071760;28;20029;-79
2023/04/28 00:39:47;;;;;;;27.25;11.85;;;11.40;53.20;;;;;;5073015;28;20363;-78
2023/04/28 00:42:13;;;;;;;56.50;20.92;;;11.40;53.20;;;;;;5072980;28;20362;-79
2023/04/28 00:44:40;;;;;;;28.95;10.88;;;11.40;53.30;;;;;;5072942;28;20056;-79
2023/04/28 00:47:07;;;;;;;31.02;10.70;;;11.40;53.50;;;;;;5073291;28;20020;-79
2023/04/28 00:49:34;;;;;;;49.90;17.08;;;11.30;53.40;;;;;;5072955;28;20021;-79
2023/04/28 00:52:05;;;;;;;45.03;15.95;;;11.40;53.50;;;;;;5070277;28;20052;-79
2023/04/28 00:54:35;;;;;;;21.58;9.02;;;11.30;53.40;;;;;;5071720;28;20489;-79
2023/04/28 00:57:02;;;;;;;14.88;6.60;;;11.30;53.30;;;;;;5071520;28;20037;-79
2023/04/28 00:59:31;;;;;;;19.70;5.80;;;11.40;53.50;;;;;;5071744;28;20016;-79
2023/04/28 01:01:58;;;;;;;7.88;4.35;;;11.40;53.50;;;;;;5072866;28;20481;-80
2023/04/28 01:04:27;;;;;;;9.85;4.78;;;11.40;53.30;;;;;;5057101;28;20143;-80
2023/04/28 01:06:55;;;;;;;16.00;5.20;;;11.40;53.70;;;;;;5052663;28;20025;-78
2023/04/28 01:09:21;;;;;;;21.75;7.35;;;11.40;53.60;;;;;;5063979;28;20103;-79
2023/04/28 01:11:47;;;;;;;21.95;8.77;;;11.40;53.70;;;;;;5072823;28;20028;-79
2023/04/28 01:14:13;;;;;;;27.20;9.32;;;11.40;53.70;;;;;;5076248;28;20024;-78
2023/04/28 01:16:40;;;;;;;18.02;6.45;;;11.40;53.90;;;;;;5076427;28;20070;-79
2023/04/28 01:19:07;;;;;;;12.80;4.75;;;11.40;53.80;;;;;;5076217;28;20538;-79
2023/04/28 01:21:33;;;;;;;15.20;5.45;;;11.40;53.90;;;;;;5076164;28;20031;-79
2023/04/28 01:24:00;;;;;;;10.05;3.33;;;11.40;53.80;;;;;;5075897;28;20501;-78
2023/04/28 01:26:26;;;;;;;6.22;2.50;;;11.40;53.30;;;;;;5075998;28;20111;-79
2023/04/28 01:28:52;;;;;;;8.35;4.13;;;11.40;53.00;;;;;;5075902;28;20032;-79
2023/04/28 01:31:18;;;;;;;10.50;4.38;;;11.50;53.50;;;;;;5075834;28;20024;-80
2023/04/28 01:33:43;;;;;;;6.47;3.55;;;11.50;53.40;;;;;;5066821;28;20025;-79
2023/04/28 01:36:09;;;;;;;10.50;3.67;;;11.50;53.60;;;;;;5055818;28;20478;-79
2023/04/28 01:38:35;;;;;;;10.90;5.10;;;11.50;53.80;;;;;;5055850;28;20025;-80
2023/04/28 01:41:04;;;;;;;9.32;4.25;;;11.50;53.70;;;;;;5056103;28;20032;-78
2023/04/28 01:43:30;;;;;;;12.43;3.80;;;11.50;53.60;;;;;;5056028;28;20017;-79
2023/04/28 01:45:55;;;;;;;6.10;2.55;;;11.50;53.60;;;;;;5055679;28;20025;-78
2023/04/28 01:48:21;;;;;;;7.38;3.78;;;11.50;53.30;;;;;;5055668;28;20033;-79
2023/04/28 01:50:47;;;;;;;17.27;6.05;;;11.50;53.80;;;;;;5054448;28;20087;-78
2023/04/28 01:53:13;;;;;;;18.92;6.25;;;11.50;54.00;;;;;;5055542;28;20542;-79
2023/04/28 01:55:39;;;;;;;12.00;4.75;;;11.50;54.10;;;;;;5054711;28;20056;-79
2023/04/28 01:58:06;;;;;;;7.78;3.13;;;11.50;53.90;;;;;;5056040;28;20021;-77
2023/04/28 02:00:31;;;;;;;7.20;2.90;;;11.50;53.60;;;;;;5054903;28;20075;-79
2023/04/28 02:02:57;;;;;;;10.48;3.38;;;11.50;53.60;;;;;;5058812;28;20052;-78
2023/04/28 02:05:23;;;;;;;11.63;5.13;;;11.60;53.80;;;;;;5074766;28;20029;-78
2023/04/28 02:07:49;;;;;;;12.18;3.85;;;11.60;53.80;;;;;;5063846;28;20028;-79
2023/04/28 02:10:15;;;;;;;11.63;3.22;;;11.60;53.60;;;;;;5054094;28;20029;-79
2023/04/28 02:12:41;;;;;;;5.10;2.85;;;11.60;53.40;;;;;;5055342;28;20028;-78
2023/04/28 02:15:08;;;;;;;6.70;2.50;;;11.60;53.30;;;;;;5054018;28;20124;-79
2023/04/28 02:17:33;;;;;;;7.97;3.10;;;11.70;53.30;;;;;;5055017;28;20076;-79
2023/04/28 02:19:59;;;;;;;9.55;3.00;;;11.60;53.30;;;;;;5055350;28;20478;-78
2023/04/28 02:22:25;;;;;;;6.82;3.13;;;11.70;53.20;;;;;;5055372;28;20475;-78
2023/04/28 02:24:51;;;;;;;5.18;2.78;;;11.70;53.20;;;;;;5054024;28;20044;-79
2023/04/28 02:27:17;;;;;;;9.18;3.25;;;11.60;53.10;;;;;;5055002;28;20033;-80
2023/04/28 02:29:43;;;;;;;7.88;2.88;;;11.60;53.20;;;;;;5054925;28;20103;-78
2023/04/28 02:32:09;;;;;;;4.47;2.78;;;11.60;53.20;;;;;;5054774;28;20104;-78
2023/04/28 02:34:34;;;;;;;12.95;4.28;;;11.60;53.00;;;;;;5070963;28;20044;-79
2023/04/28 02:37:00;;;;;;;11.80;4.60;;;11.60;53.70;;;;;;5073450;28;20028;-79
2023/04/28 02:39:26;;;;;;;9.27;3.50;;;11.60;53.50;;;;;;5074792;28;20465;-78
2023/04/28 02:41:53;;;;;;;8.32;3.38;;;11.60;53.80;;;;;;5074857;28;20017;-79
2023/04/28 02:44:19;;;;;;;3.67;2.75;;;11.60;53.90;;;;;;5073253;28;20031;-78
2023/04/28 02:46:45;;;;;;;7.50;3.00;;;11.60;53.90;;;;;;5073323;28;20027;-79
2023/04/28 02:49:11;;;;;;;7.35;3.45;;;11.50;53.90;;;;;;5074435;28;20024;-79
2023/04/28 02:51:37;;;;;;;8.85;3.15;;;11.60;54.20;;;;;;5074764;28;20024;-79
2023/04/28 02:54:03;;;;;;;12.15;4.82;;;11.60;54.20;;;;;;5074511;28;20088;-79
2023/04/28 02:56:29;;;;;;;11.45;4.57;;;11.60;54.70;;;;;;5074178;28;20029;-79
2023/04/28 02:58:55;;;;;;;7.40;3.97;;;11.60;54.70;;;;;;5073147;28;20044;-79
2023/04/28 03:01:21;;;;;;;9.73;4.32;;;11.60;54.70;;;;;;5074204;28;20036;-78
2023/04/28 03:03:47;;;;;;;9.32;4.90;;;11.70;54.70;;;;;;5072802;28;20440;-79
2023/04/28 03:06:13;;;;;;;9.63;5.03;;;11.60;54.80;;;;;;5074153;28;20039;-78
2023/04/28 03:08:39;;;;;;;9.57;6.25;;;11.70;55.00;;;;;;5072893;28;20029;-80
2023/04/28 03:11:05;;;;;;;19.85;11.77;;;11.70;55.10;;;;;;5072816;28;20028;-78
2023/04/28 03:13:31;;;;;;;21.83;12.13;;;11.70;54.80;;;;;;5072779;28;20024;-79
2023/04/28 03:15:57;;;;;;;17.27;10.30;;;11.80;54.70;;;;;;5072581;28;20083;-80
2023/04/28 03:18:23;;;;;;;16.33;9.48;;;11.80;54.60;;;;;;5072622;28;20056;-79
2023/04/28 03:20:49;;;;;;;14.00;7.55;;;11.80;54.70;;;;;;5072582;28;20060;-78
2023/04/28 03:23:15;;;;;;;6.82;4.72;;;11.90;54.80;;;;;;5073653;28;20031;-79
2023/04/28 03:25:41;;;;;;;12.23;4.63;;;11.90;54.50;;;;;;5073841;28;20016;-80
2023/04/28 03:28:06;;;;;;;5.28;3.13;;;11.90;54.40;;;;;;5072494;28;20358;-80
2023/04/28 03:30:32;;;;;;;13.18;3.25;;;11.90;54.10;;;;;;5072576;28;20021;-79
2023/04/28 03:32:58;;;;;;;6.07;3.22;;;12.00;54.00;;;;;;5071980;28;20016;-79
2023/04/28 03:35:24;;;;;;;5.82;3.35;;;12.00;53.80;;;;;;5053653;28;20051;-79
2023/04/28 03:37:50;;;;;;;9.40;4.05;;;12.00;53.70;;;;;;5053561;28;20060;-79
2023/04/28 03:40:16;;;;;;;8.98;4.30;;;12.00;54.40;;;;;;5052398;28;20032;-80
2023/04/28 03:42:42;;;;;;;6.57;4.05;;;12.00;53.80;;;;;;5052151;28;20027;-81
2023/04/28 03:45:08;;;;;;;9.20;4.13;;;11.90;53.80;;;;;;5053757;28;20092;-80
2023/04/28 03:47:35;;;;;;;8.98;3.53;;;11.90;53.90;;;;;;5052165;28;20406;-79
2023/04/28 03:50:01;;;;;;;6.28;3.05;;;11.90;53.60;;;;;;5053403;28;20074;-79
2023/04/28 03:52:26;;;;;;;5.68;3.15;;;11.90;53.60;;;;;;5053252;28;20021;-80
2023/04/28 03:54:52;;;;;;;6.38;3.65;;;11.90;53.60;;;;;;5052406;28;20029;-78
2023/04/28 03:57:18;;;;;;;6.28;3.45;;;11.90;53.70;;;;;;5053781;28;20474;-79
2023/04/28 03:59:44;;;;;;;9.88;3.65;;;11.80;53.70;;;;;;5053312;28;20835;-79
2023/04/28 04:02:10;;;;;;;15.15;9.50;;;11.80;53.60;;;;;;5052066;28;20032;-81
2023/04/28 04:04:36;;;;;;;8.95;4.57;;;11.80;53.70;;;;;;5059095;28;20020;-81
2023/04/28 04:07:01;;;;;;;8.35;4.03;;;11.80;53.60;;;;;;5053236;28;20478;-79
2023/04/28 04:09:27;;;;;;;7.25;3.13;;;11.80;53.70;;;;;;5053046;28;20107;-80
2023/04/28 04:11:53;;;;;;;10.95;3.65;;;11.80;53.70;;;;;;5053208;28;20031;-80
2023/04/28 04:14:19;;;;;;;7.00;3.40;;;11.80;54.00;;;;;;5053150;28;20077;-81
2023/04/28 04:16:46;;;;;;;7.20;3.53;;;11.80;54.20;;;;;;5051806;28;20029;-80
2023/04/28 04:19:12;;;;;;;6.25;3.50;;;11.80;54.00;;;;;;5051914;28;20406;-79
2023/04/28 04:21:38;;;;;;;4.97;2.83;;;11.80;53.90;;;;;;5053097;28;20021;-80
2023/04/28 04:24:04;;;;;;;4.63;3.42;;;11.80;53.90;;;;;;5051557;28;20049;-80
2023/04/28 04:26:30;;;;;;;8.57;3.80;;;11.80;54.00;;;;;;5053106;28;20100;-79
2023/04/28 04:28:56;;;;;;;10.85;3.40;;;11.90;54.40;;;;;;5051699;28;20103;-79
2023/04/28 04:31:22;;;;;;;11.15;3.42;;;11.90;54.10;;;;;;5051719;28;20036;-78
2023/04/28 04:33:48;;;;;;;8.82;3.30;;;12.00;54.10;;;;;;5060546;28;20432;-79
2023/04/28 04:36:14;;;;;;;8.63;3.67;;;12.00;54.10;;;;;;5072746;28;20466;-78
2023/04/28 04:38:40;;;;;;;4.97;3.20;;;12.10;53.90;;;;;;5072938;28;20025;-79
2023/04/28 04:41:05;;;;;;;8.13;3.40;;;12.10;53.70;;;;;;5071752;28;20016;-78
2023/04/28 04:43:31;;;;;;;6.05;3.65;;;12.20;53.50;;;;;;5072985;28;20052;-79
2023/04/28 04:45:57;;;;;;;6.85;2.88;;;12.30;53.40;;;;;;5071701;28;20021;-79
2023/04/28 04:48:23;;;;;;;5.00;3.00;;;12.40;53.20;;;;;;5075507;28;20017;-79
2023/04/28 04:50:49;;;;;;;7.03;4.03;;;12.50;53.10;;;;;;5076637;28;20478;-79
2023/04/28 04:53:14;;;;;;;10.50;4.10;;;12.50;53.10;;;;;;5075414;28;20078;-80
2023/04/28 04:55:40;;;;;;;6.70;3.85;;;12.60;53.00;;;;;;5075309;28;20115;-79
2023/04/28 04:58:06;;;;;;;4.90;3.22;;;12.60;52.90;;;;;;5076518;28;20020;-79
2023/04/28 05:00:32;;;;;;;7.43;3.72;;;12.70;52.90;;;;;;5076281;28;20478;-80
2023/04/28 05:02:58;;;;;;;8.55;3.72;;;12.70;52.90;;;;;;5076363;28;20028;-81
2023/04/28 05:05:24;;;;;;;8.90;3.60;;;12.80;53.00;;;;;;5056839;28;20071;-79
2023/04/28 05:07:50;;;;;;;12.85;3.80;;;12.80;53.50;;;;;;5055224;28;20474;-79
2023/04/28 05:10:16;;;;;;;7.38;4.10;;;12.90;53.00;;;;;;5056302;28;20433;-78
2023/04/28 05:12:43;;;;;;;12.95;5.18;;;13.00;52.90;;;;;;5071640;28;20021;-81
2023/04/28 05:15:09;;;;;;;15.50;3.80;;;13.10;52.80;;;;;;5056537;28;20104;-80
2023/04/28 05:17:35;;;;;;;9.50;4.18;;;13.20;52.60;;;;;;5055913;28;20032;-79
2023/04/28 05:20:02;;;;;;;8.63;4.32;;;13.30;52.40;;;;;;5056473;28;20028;-80
2023/04/28 05:22:29;;;;;;;9.35;4.75;;;13.40;52.30;;;;;;5056258;28;20048;-79
2023/04/28 05:24:55;;;;;;;7.32;3.45;;;13.50;52.50;;;;;;5054542;28;20045;-81
2023/04/28 05:27:21;;;;;;;7.95;4.00;;;13.60;52.80;;;;;;5054455;28;20115;-79
2023/04/28 05:29:47;;;;;;;8.23;4.18;;;13.60;52.70;;;;;;5071103;28;20108;-81
2023/04/28 05:32:13;;;;;;;8.60;4.78;;;13.70;52.50;;;;;;5064173;28;20476;-79
2023/04/28 05:34:38;;;;;;;7.10;4.20;;;13.70;52.20;;;;;;5067434;28;20024;-80
2023/04/28 05:37:04;;;;;;;9.35;4.35;;;13.80;52.00;;;;;;5074170;28;20035;-79
2023/04/28 05:39:30;;;;;;;8.85;4.50;;;13.80;52.00;;;;;;5075442;28;20021;-79
2023/04/28 05:41:57;;;;;;;9.18;4.50;;;13.90;52.00;;;;;;5061666;28;20025;-80
2023/04/28 05:44:23;;;;;;;7.28;4.03;;;14.00;52.00;;;;;;5055371;28;20013;-80
2023/04/28 05:46:49;;;;;;;10.95;4.07;;;14.00;51.80;;;;;;5054240;28;20056;-79
2023/04/28 05:49:15;;;;;;;11.30;6.82;;;14.10;51.90;;;;;;5055260;28;20406;-79
2023/04/28 05:51:41;;;;;;;8.77;5.57;;;14.20;52.00;;;;;;5055660;28;20025;-79
2023/04/28 05:54:07;;;;;;;8.27;4.45;;;14.30;52.50;;;;;;5055584;28;20048;-81
2023/04/28 05:56:33;;;;;;;7.63;4.18;;;14.40;51.80;;;;;;5053969;28;20496;-79
2023/04/28 05:59:02;;;;;;;11.60;4.38;;;14.50;51.50;;;;;;5053083;28;20112;-79
2023/04/28 06:01:31;;;;;;;14.23;6.55;;;14.70;51.30;;;;;;5060817;28;20012;-79
2023/04/28 06:03:57;;;;;;;14.95;8.13;;;14.90;50.80;;;;;;5071202;28;20091;-79
2023/04/28 06:06:24;;;;;;;24.90;9.80;;;15.10;49.80;;;;;;5066366;28;20028;-80
2023/04/28 06:08:50;;;;;;;12.50;6.78;;;15.20;49.30;;;;;;5075233;28;20099;-79
2023/04/28 06:11:18;;;;;;;9.88;5.40;;;15.30;49.10;;;;;;5074571;28;20111;-80
2023/04/28 06:13:43;;;;;;;11.07;5.00;;;15.50;48.80;;;;;;5075316;28;20541;-76
2023/04/28 06:16:09;;;;;;;9.07;4.97;;;15.60;49.00;;;;;;5075369;28;20099;-78
2023/04/28 06:18:35;;;;;;;11.30;5.63;;;15.70;48.70;;;;;;5075142;28;20024;-79
2023/04/28 06:21:01;;;;;;;11.43;5.20;;;15.90;48.60;;;;;;5073743;28;20068;-78
2023/04/28 06:23:27;;;;;;;14.10;6.22;;;15.90;48.40;;;;;;5073619;28;20052;-78
2023/04/28 06:25:53;;;;;;;24.52;7.40;;;16.10;47.90;;;;;;5075093;28;20121;-77
2023/04/28 06:28:19;;;;;;;21.67;8.25;;;16.20;47.60;;;;;;5073713;28;20431;-78
2023/04/28 06:30:45;;;;;;;18.40;7.53;;;16.30;46.80;;;;;;5074220;28;20027;-77
2023/04/28 06:33:10;;;;;;;25.55;8.73;;;16.30;46.50;;;;;;5070917;28;20025;-78
2023/04/28 06:35:37;;;;;;;17.63;7.72;;;16.40;45.70;;;;;;5074264;28;20024;-79
2023/04/28 06:38:04;;;;;;;22.33;7.88;;;16.40;46.10;;;;;;5063600;28;20051;-80
2023/04/28 06:40:29;;;;;;;27.30;9.05;;;16.40;45.90;;;;;;5074677;28;20363;-80
2023/04/28 06:42:56;;;;;;;28.42;7.32;;;16.50;45.00;;;;;;5074504;28;20028;-80
2023/04/28 06:45:21;;;;;;;21.48;7.45;;;16.50;45.80;;;;;;5073294;28;20036;-79
2023/04/28 06:47:47;;;;;;;16.42;6.55;;;16.50;45.80;;;;;;5073395;28;20031;-79
2023/04/28 06:50:13;;;;;;;17.92;6.45;;;16.50;45.70;;;;;;5074694;28;20039;-79
2023/04/28 06:52:39;;;;;;;19.50;7.85;;;16.60;45.60;;;;;;5074652;28;20032;-78
2023/04/28 06:55:06;;;;;;;13.50;5.97;;;16.60;45.30;;;;;;5073177;28;20032;-80
2023/04/28 06:57:32;;;;;;;13.57;5.95;;;16.70;45.40;;;;;;5074324;28;20055;-77
2023/04/28 06:59:58;;;;;;;11.60;5.80;;;16.70;45.30;;;;;;5074329;28;20049;-78
2023/04/28 07:02:24;;;;;;;17.52;6.15;;;16.80;44.90;;;;;;5073032;28;20500;-77
2023/04/28 07:04:50;;;;;;;7.70;4.75;;;16.80;44.00;;;;;;5055461;28;20025;-79
2023/04/28 07:07:15;;;;;;;9.70;4.85;;;16.80;44.20;;;;;;5054012;28;20025;-77
2023/04/28 07:09:41;;;;;;;13.27;4.95;;;16.90;43.90;;;;;;5053841;28;20025;-79
2023/04/28 07:12:07;;;;;;;8.98;4.68;;;17.00;43.80;;;;;;5065260;28;20036;-80
2023/04/28 07:14:33;;;;;;;9.60;5.28;;;17.10;43.40;;;;;;5074103;28;20468;-78
2023/04/28 07:16:59;;;;;;;7.15;4.28;;;17.10;42.60;;;;;;5073458;28;20035;-78
2023/04/28 07:19:25;;;;;;;10.85;4.55;;;17.20;43.00;;;;;;5074290;28;20111;-78
2023/04/28 07:21:50;;;;;;;10.93;4.80;;;17.30;43.60;;;;;;5073223;28;20017;-78
2023/04/28 07:24:16;;;;;;;10.70;4.88;;;17.40;43.90;;;;;;5073640;28;20049;-79
2023/04/28 07:26:42;;;;;;;12.60;4.78;;;17.50;43.80;;;;;;5064929;28;20021;-78
2023/04/28 07:29:09;;;;;;;7.93;4.80;;;17.70;43.20;;;;;;5056329;28;20029;-79
2023/04/28 07:31:35;;;;;;;10.40;4.40;;;17.80;42.70;;;;;;5060670;28;20078;-80
2023/04/28 07:34:00;;;;;;;8.15;4.38;;;17.90;41.90;;;;;;5070273;28;20021;-77
2023/04/28 07:36:26;;;;;;;8.95;4.90;;;18.00;42.00;;;;;;5065738;28;20035;-77
2023/04/28 07:38:52;;;;;;;8.90;4.50;;;18.10;41.60;;;;;;5067426;28;20028;-77
2023/04/28 07:41:18;;;;;;;6.53;4.38;;;18.20;41.40;;;;;;5061287;28;20458;-78
2023/04/28 07:43:44;;;;;;;7.05;4.40;;;18.30;41.90;;;;;;5073005;28;20020;-78
2023/04/28 07:46:11;;;;;;;8.48;5.25;;;18.50;41.60;;;;;;5081854;28;20099;-77
2023/04/28 07:48:37;;;;;;;7.78;4.82;;;18.50;39.40;;;;;;5081446;28;20020;-77
2023/04/28 07:51:04;;;;;;;6.15;3.80;;;18.50;39.50;;;;;;5079206;28;20404;-77
2023/04/28 07:53:30;;;;;;;9.82;4.38;;;18.50;40.30;;;;;;5076505;28;20124;-78
2023/04/28 07:55:55;;;;;;;8.48;4.25;;;18.60;39.90;;;;;;5065467;28;20053;-80
2023/04/28 07:58:21;;;;;;;7.57;4.13;;;18.70;41.20;;;;;;5076379;28;20025;-77
2023/04/28 08:00:47;;;;;;;7.45;4.38;;;18.90;41.10;;;;;;5060121;28;20017;-77
2023/04/28 08:03:13;;;;;;;6.25;3.85;;;19.00;40.70;;;;;;5053164;28;20025;-80
2023/04/28 08:05:39;;;;;;;10.93;5.03;;;19.10;40.60;;;;;;5064476;28;20029;-80
2023/04/28 08:08:05;;;;;;;7.05;4.10;;;19.20;40.40;;;;;;5072062;28;20024;-78
2023/04/28 08:10:31;;;;;;;8.35;3.53;;;19.30;39.80;;;;;;5073139;28;20081;-79
2023/04/28 08:12:58;;;;;;;11.57;4.28;;;19.40;40.10;;;;;;5068611;28;20040;-80
2023/04/28 08:15:24;;;;;;;8.93;4.95;;;19.50;39.90;;;;;;5063171;28;20032;-79
2023/04/28 08:17:51;;;;;;;10.18;4.22;;;19.50;40.30;;;;;;5053007;28;20021;-78
2023/04/28 08:20:18;;;;;;;12.85;4.88;;;19.60;39.80;;;;;;5063104;28;20032;-80
2023/04/28 08:22:45;;;;;;;9.93;4.68;;;19.60;39.30;;;;;;5056125;28;20027;-79
2023/04/28 08:25:11;;;;;;;21.25;5.32;;;19.60;39.00;;;;;;5076778;28;20045;-79
2023/04/28 08:27:38;;;;;;;13.35;4.80;;;19.70;39.10;;;;;;5067900;28;20040;-79
2023/04/28 08:30:08;;;;;;;15.80;5.53;;;19.70;38.40;;;;;;5069956;28;20025;-78
2023/04/28 08:32:34;;;;;;;18.08;5.28;;;19.80;39.00;;;;;;5055671;28;20032;-79
2023/04/28 08:35:00;;;;;;;14.38;4.78;;;19.90;38.80;;;;;;5073186;28;20437;-80
2023/04/28 08:37:27;;;;;;;9.10;4.15;;;20.00;39.10;;;;;;5075458;28;20059;-79
2023/04/28 08:40:00;;;;;;;15.43;6.68;;;20.00;38.70;;;;;;5068771;28;20474;-80
2023/04/28 08:42:33;;;;;;;25.73;8.43;;;20.20;38.60;;;;;;5055964;28;20092;-79
2023/04/28 08:45:00;;;;;;;12.63;6.22;;;20.30;38.50;;;;;;5072585;28;20071;-80
2023/04/28 08:47:34;;;;;;;12.07;4.55;;;20.40;38.20;;;;;;5056994;28;20429;-79
2023/04/28 08:50:04;;;;;;;10.45;4.22;;;20.40;37.70;;;;;;5074038;28;20099;-78
2023/04/28 08:52:31;;;;;;;10.23;4.22;;;20.50;37.80;;;;;;5058163;28;20025;-79
2023/04/28 08:55:04;;;;;;;7.47;3.85;;;20.50;37.60;;;;;;5055462;28;20120;-79
2023/04/28 08:57:38;;;;;;;11.15;4.35;;;20.50;37.80;;;;;;5064035;28;20478;-79
2023/04/28 09:00:05;;;;;;;9.15;4.13;;;20.60;37.60;;;;;;5064305;28;20046;-81
2023/04/28 09:02:31;;;;;;;7.65;4.25;;;20.50;37.30;;;;;;5056379;28;20481;-79
2023/04/28 09:04:57;;;;;;;6.88;4.10;;;20.60;37.40;;;;;;5056485;28;20036;-79
2023/04/28 09:07:23;;;;;;;9.23;4.40;;;20.60;37.30;;;;;;5056421;28;20036;-79
2023/04/28 09:09:49;;;;;;;9.23;4.28;;;20.60;36.90;;;;;;5055036;28;20025;-79
2023/04/28 09:12:16;;;;;;;10.02;3.63;;;20.60;37.20;;;;;;5056077;28;20538;-81
2023/04/28 09:14:42;;;;;;;6.95;4.47;;;20.60;37.40;;;;;;5054898;28;20032;-79
2023/04/28 09:17:11;;;;;;;18.80;6.43;;;20.70;37.40;;;;;;5056051;28;20025;-80
2023/04/28 09:19:38;;;;;;;24.00;7.47;;;20.80;37.30;;;;;;5056132;28;20032;-80
2023/04/28 09:22:05;;;;;;;22.25;6.55;;;21.00;37.20;;;;;;5056116;28;20048;-80
2023/04/28 09:24:39;;;;;;;14.45;5.75;;;21.10;37.50;;;;;;5055898;28;20044;-81
2023/04/28 09:27:09;;;;;;;20.80;5.93;;;21.20;36.20;;;;;;5056172;28;20119;-80
2023/04/28 09:29:35;;;;;;;16.52;5.57;;;21.40;36.30;;;;;;5057381;28;20033;-79
2023/04/28 09:32:18;;;;;;;17.42;5.30;;;21.60;35.80;;;;;;5054642;28;20025;-81
2023/04/28 09:34:52;;;;;;;7.55;4.63;;;21.70;36.00;;;;;;5054256;28;20025;-77
2023/04/28 09:37:21;;;;;;;10.40;4.05;;;21.80;36.00;;;;;;5068310;28;20489;-78
2023/04/28 09:39:51;;;;;;;13.63;4.68;;;22.00;35.00;;;;;;5094572;28;20031;-79
2023/04/28 09:42:37;;;;;;;10.80;4.60;;;22.10;35.00;;;;;;5089637;28;20028;-81
2023/04/28 09:45:13;;;;;;;19.80;5.50;;;22.30;35.10;;;;;;5074324;28;20027;-78
2023/04/28 09:47:41;;;;;;;14.25;5.57;;;22.30;34.10;;;;;;5075936;28;20020;-79
2023/04/28 09:50:11;;;;;;;16.13;5.32;;;22.30;34.20;;;;;;5076320;28;20100;-78
2023/04/28 09:52:37;;;;;;;13.80;5.30;;;22.40;34.00;;;;;;5074110;28;20524;-80
2023/04/28 09:55:05;;;;;;;10.52;5.10;;;22.40;34.10;;;;;;5075460;28;20028;-81
2023/04/28 09:57:33;;;;;;;9.70;4.00;;;22.40;34.30;;;;;;5056499;28;20120;-79
2023/04/28 09:59:59;;;;;;;13.95;4.60;;;22.40;34.60;;;;;;5055093;28;20028;-79
2023/04/28 10:02:26;;;;;;;6.00;3.72;;;22.40;34.50;;;;;;5058565;28;20099;-80
2023/04/28 10:04:52;;;;;;;13.60;4.60;;;22.40;34.70;;;;;;5057073;28;20094;-78
2023/04/28 10:07:19;;;;;;;11.40;4.25;;;22.40;34.70;;;;;;5055377;28;20037;-77
2023/04/28 10:09:49;;;;;;;9.48;4.60;;;22.30;34.70;;;;;;5055371;28;20051;-80
2023/04/28 10:12:16;;;;;;;8.45;4.18;;;22.30;34.70;;;;;;5059153;28;20044;-80
2023/04/28 10:14:43;;;;;;;16.50;5.00;;;22.20;35.00;;;;;;5053848;28;20032;-79
2023/04/28 10:17:10;;;;;;;9.63;5.13;;;22.20;35.10;;;;;;5053668;28;20032;-79
2023/04/28 10:19:46;;;;;;;7.78;4.45;;;22.20;35.20;;;;;;5055006;28;20017;-79
2023/04/28 10:22:27;;;;;;;11.30;4.57;;;22.10;35.40;;;;;;5070362;28;20493;-80
2023/04/28 10:25:01;;;;;;;9.70;5.00;;;22.10;35.40;;;;;;5054650;28;20041;-77
2023/04/28 10:27:30;;;;;;;10.35;4.72;;;22.10;35.40;;;;;;5070231;28;20470;-77
2023/04/28 10:30:16;;;;;;;13.75;4.70;;;22.10;35.60;;;;;;5055083;28;20029;-80
2023/04/28 10:32:44;;;;;;;9.68;4.63;;;22.10;35.70;;;;;;5067784;28;20017;-78
2023/04/28 10:35:35;;;;;;;11.90;5.28;;;22.00;35.60;;;;;;5074635;28;20017;-80
2023/04/28 10:38:11;;;;;;;14.98;6.28;;;22.00;35.60;;;;;;5054449;28;20032;-79
2023/04/28 10:40:43;;;;;;;12.57;4.93;;;22.00;35.70;;;;;;5054257;28;20021;-79
2023/04/28 10:43:13;;;;;;;10.93;5.07;;;22.00;35.80;;;;;;5056134;28;20017;-80
2023/04/28 10:45:51;;;;;;;10.73;4.45;;;22.10;35.70;;;;;;5082783;28;20094;-79
2023/04/28 10:48:51;;;;;;;8.13;4.32;;;22.10;35.70;;;;;;5074006;28;20038;-78
2023/04/28 10:51:17;;;;;;;11.02;4.63;;;22.10;35.90;;;;;;5065873;28;20033;-80
2023/04/28 10:53:45;;;;;;;9.27;4.63;;;22.10;35.80;;;;;;5054251;28;20104;-80
2023/04/28 10:56:20;;;;;;;10.13;4.30;;;22.10;35.80;;;;;;5055177;28;20094;-78
2023/04/28 10:58:59;;;;;;;10.25;4.78;;;22.10;35.80;;;;;;5071276;28;20020;-79
2023/04/28 11:01:30;;;;;;;10.07;4.40;;;22.20;35.90;;;;;;5074079;28;20020;-80
2023/04/28 11:04:09;;;;;;;14.30;5.57;;;22.10;36.20;;;;;;5073787;28;20374;-80
2023/04/28 11:06:45;;;;;;;7.13;3.85;;;22.20;36.30;;;;;;5072870;28;20446;-78
2023/04/28 11:09:11;;;;;;;7.53;3.90;;;22.20;36.40;;;;;;5090600;28;20027;-80
2023/04/28 11:11:38;;;;;;;9.00;4.03;;;22.20;36.40;;;;;;5093652;28;20069;-81
2023/04/28 11:14:19;;;;;;;8.52;4.93;;;22.20;36.50;;;;;;5069649;28;20020;-80
2023/04/28 11:17:00;;;;;;;8.27;4.20;;;22.20;36.60;;;;;;5052338;28;20037;-78
2023/04/28 11:19:28;;;;;;;12.80;4.25;;;22.10;36.90;;;;;;5063777;28;20051;-78
2023/04/28 11:21:57;;;;;;;6.25;4.10;;;22.20;37.20;;;;;;5055879;28;20029;-78
2023/04/28 11:24:30;;;;;;;10.15;4.57;;;22.10;37.50;;;;;;5053208;28;20145;-77
2023/04/28 11:26:57;;;;;;;12.17;4.83;;;22.10;37.40;;;;;;5052915;28;20024;-78
2023/04/28 11:29:34;;;;;;;8.75;4.38;;;22.00;37.30;;;;;;5053139;28;20037;-78
2023/04/28 11:32:02;;;;;;;8.27;4.63;;;21.90;37.60;;;;;;5053135;28;20063;-79
2023/04/28 11:34:28;;;;;;;8.10;4.70;;;21.90;37.80;;;;;;5051991;28;20035;-80
2023/04/28 11:36:54;;;;;;;10.45;5.20;;;21.80;37.90;;;;;;5053121;28;20025;-80
2023/04/28 11:39:29;;;;;;;8.07;4.78;;;21.80;38.30;;;;;;5051883;28;20032;-80
2023/04/28 11:41:57;;;;;;;8.75;4.53;;;21.70;38.80;;;;;;5052022;28;20023;-78
2023/04/28 11:44:26;;;;;;;12.07;4.55;;;21.60;39.20;;;;;;5053160;28;20350;-80
2023/04/28 11:46:56;;;;;;;6.75;4.38;;;21.60;39.40;;;;;;5051967;28;20029;-77
2023/04/28 11:49:29;;;;;;;10.13;4.63;;;21.50;39.50;;;;;;5051890;28;20052;-78
2023/04/28 11:51:56;;;;;;;13.95;5.32;;;21.40;41.40;;;;;;5052305;28;20028;-79
2023/04/28 11:54:27;;;;;;;7.95;5.22;;;21.30;41.30;;;;;;5069423;28;20060;-79
2023/04/28 11:56:55;;;;;;;11.13;5.35;;;21.20;42.20;;;;;;5071856;28;20025;-78
2023/04/28 11:59:29;;;;;;;10.80;5.95;;;21.10;43.80;;;;;;5062302;28;20029;-78
2023/04/28 12:02:01;;;;;;;22.63;5.93;;;20.90;43.80;;;;;;5053057;28;20156;-78
2023/04/28 12:04:36;;;;;;;8.05;5.15;;;20.80;44.30;;;;;;5051751;28;20017;-78
2023/04/28 12:07:13;;;;;;;9.77;4.78;;;20.80;44.30;;;;;;5053107;28;20029;-78
2023/04/28 12:09:46;;;;;;;13.38;5.57;;;20.70;44.40;;;;;;5069810;28;20516;-77
2023/04/28 12:12:29;;;;;;;10.48;6.22;;;20.60;44.60;;;;;;5064322;28;20564;-78
2023/04/28 12:15:04;;;;;;;8.65;5.40;;;20.50;44.70;;;;;;5053482;28;20095;-79
2023/04/28 12:17:37;;;;;;;9.35;5.57;;;20.40;45.00;;;;;;5051388;28;20056;-79
2023/04/28 12:20:06;;;;;;;13.77;6.32;;;20.40;45.00;;;;;;5051361;28;20033;-78
2023/04/28 12:22:49;;;;;;;12.10;8.15;;;20.30;45.30;;;;;;5068169;28;20029;-78
2023/04/28 12:25:16;;;;;;;11.83;6.83;;;20.20;45.70;;;;;;5056621;28;20136;-77
2023/04/28 12:28:06;;;;;;;14.48;7.30;;;20.20;45.50;;;;;;5052563;28;20267;-78
2023/04/28 12:30:42;;;;;;;14.88;6.35;;;20.10;45.90;;;;;;5072047;28;20037;-78
2023/04/28 12:33:26;;;;;;;13.27;5.82;;;20.00;46.80;;;;;;5061182;28;20047;-79
2023/04/28 12:35:55;;;;;;;15.13;6.03;;;19.90;47.20;;;;;;5066801;28;20385;-78
2023/04/28 12:38:22;;;;;;;10.52;6.78;;;19.90;47.80;;;;;;5068901;28;20283;-79
2023/04/28 12:40:48;;;;;;;9.35;6.00;;;19.80;48.70;;;;;;5072554;28;20405;-78
2023/04/28 12:43:14;;;;;;;13.48;5.90;;;19.80;48.40;;;;;;5071262;28;20031;-79